createdAt,value
2018-05-23T00:00:29.195Z,99.99
2018-05-23T00:01:28.920Z,99.99
2018-05-23T00:02:29.190Z,99.68
2018-05-23T00:03:28.922Z,99.96
2018-05-23T00:04:29.191Z,99.99
2018-05-23T00:05:29.191Z,99.99
2018-05-23T00:06:29.193Z,99.99
2018-05-23T00:07:29.196Z,99.99
2018-05-23T00:08:29.193Z,99.99
2018-05-23T00:09:29.183Z,99.99
2018-05-23T00:10:28.925Z,99.99
2018-05-23T00:11:29.192Z,99.99
2018-05-23T00:12:28.931Z,99.99
2018-05-23T00:13:31.065Z,99.99
2018-05-23T00:14:28.926Z,99.99
2018-05-23T00:15:29.194Z,99.99
2018-05-23T00:16:28.926Z,99.99
2018-05-23T00:17:29.200Z,99.99
2018-05-23T00:18:29.202Z,99.99
2018-05-23T00:19:28.929Z,99.99
2018-05-23T00:20:29.199Z,99.99
2018-05-23T00:21:28.928Z,99.99
2018-05-23T00:22:29.197Z,99.99
2018-05-23T00:23:29.200Z,99.99
2018-05-23T00:24:28.929Z,99.99
2018-05-23T00:25:29.205Z,99.99
2018-05-23T00:26:28.936Z,99.99
2018-05-23T00:27:29.200Z,99.99
2018-05-23T00:28:28.933Z,99.99
2018-05-23T00:29:29.199Z,99.99
2018-05-23T00:30:29.201Z,99.99
2018-05-23T00:31:29.205Z,99.99
2018-05-23T00:32:29.202Z,99.99
2018-05-23T00:33:29.215Z,99.99
2018-05-23T00:34:29.204Z,99.99
2018-05-23T00:35:29.206Z,99.99
2018-05-23T00:36:29.206Z,99.99
2018-05-23T00:37:29.203Z,99.99
2018-05-23T00:38:28.939Z,99.99
2018-05-23T00:39:29.207Z,99.99
2018-05-23T00:40:28.946Z,99.99
2018-05-23T00:41:28.940Z,99.99
2018-05-23T00:42:28.946Z,99.99
2018-05-23T00:43:30.268Z,99.99
2018-05-23T00:44:28.941Z,99.99
2018-05-23T00:45:29.208Z,99.99
2018-05-23T00:46:29.205Z,99.99
2018-05-23T00:47:29.212Z,99.99
2018-05-23T00:48:29.210Z,99.99
2018-05-23T00:49:29.208Z,99.99
2018-05-23T00:50:29.203Z,99.99
2018-05-23T00:51:29.207Z,99.99
2018-05-23T00:52:28.950Z,99.99
2018-05-23T00:53:28.947Z,99.99
2018-05-23T00:54:28.952Z,99.99
2018-05-23T00:55:29.215Z,99.99
2018-05-23T00:56:28.951Z,99.99
2018-05-23T00:57:28.952Z,99.99
2018-05-23T00:58:28.953Z,99.99
2018-05-23T00:59:28.954Z,99.99
2018-05-23T01:00:29.230Z,99.99
2018-05-23T01:01:28.950Z,99.99
2018-05-23T01:02:28.952Z,99.99
2018-05-23T01:03:29.214Z,99.99
2018-05-23T01:04:28.955Z,99.99
2018-05-23T01:05:29.213Z,99.99
2018-05-23T01:06:29.218Z,99.99
2018-05-23T01:07:29.227Z,99.99
2018-05-23T01:08:28.975Z,99.99
2018-05-23T01:09:29.221Z,99.99
2018-05-23T01:10:28.970Z,99.99
2018-05-23T01:11:29.228Z,99.99
2018-05-23T01:12:29.227Z,99.99
2018-05-23T01:13:29.238Z,99.99
2018-05-23T01:14:28.976Z,99.99
2018-05-23T01:15:28.979Z,99.99
2018-05-23T01:16:28.966Z,99.99
2018-05-23T01:17:29.231Z,99.99
2018-05-23T01:18:29.233Z,99.99
2018-05-23T01:19:28.962Z,99.99
2018-05-23T01:20:29.224Z,99.99
2018-05-23T01:21:29.253Z,99.99
2018-05-23T01:22:28.968Z,99.99
2018-05-23T01:23:29.238Z,99.99
2018-05-23T01:24:29.225Z,99.99
2018-05-23T01:25:29.236Z,99.99
2018-05-23T01:26:29.227Z,99.99
2018-05-23T01:27:29.235Z,99.99
2018-05-23T01:28:29.235Z,99.99
2018-05-23T01:29:29.232Z,99.99
2018-05-23T01:30:29.239Z,99.99
2018-05-23T01:31:28.980Z,99.99
2018-05-23T01:32:29.275Z,99.99
2018-05-23T01:33:29.313Z,99.99
2018-05-23T01:34:29.240Z,99.99
2018-05-23T01:35:29.254Z,99.99
2018-05-23T01:36:28.985Z,99.99
2018-05-23T01:37:29.235Z,99.99
2018-05-23T01:38:29.234Z,99.99
2018-05-23T01:39:29.235Z,99.99
2018-05-23T01:40:28.976Z,99.99
2018-05-23T01:41:29.237Z,99.99
2018-05-23T01:42:29.249Z,99.99
2018-05-23T01:43:29.244Z,99.99
2018-05-23T01:44:30.839Z,99.99
2018-05-23T01:45:29.243Z,99.99
2018-05-23T01:46:29.244Z,99.99
2018-05-23T01:47:29.253Z,99.99
2018-05-23T01:48:28.976Z,99.99
2018-05-23T01:49:29.240Z,99.99
2018-05-23T01:50:28.991Z,99.99
2018-05-23T01:51:29.241Z,99.99
2018-05-23T01:52:29.237Z,99.99
2018-05-23T01:53:29.250Z,99.99
2018-05-23T01:54:29.253Z,99.99
2018-05-23T01:55:29.242Z,99.99
2018-05-23T01:56:28.989Z,99.99
2018-05-23T01:57:29.240Z,99.99
2018-05-23T01:58:29.259Z,99.99
2018-05-23T01:59:28.995Z,99.99
2018-05-23T02:00:29.249Z,99.99
2018-05-23T02:01:29.247Z,99.99
2018-05-23T02:02:29.244Z,99.99
2018-05-23T02:03:28.998Z,99.99
2018-05-23T02:04:29.242Z,99.99
2018-05-23T02:05:29.256Z,99.99
2018-05-23T02:06:29.256Z,99.99
2018-05-23T02:07:29.243Z,99.99
2018-05-23T02:08:29.243Z,99.99
2018-05-23T02:09:28.983Z,99.99
2018-05-23T02:10:28.983Z,99.99
2018-05-23T02:11:29.244Z,99.99
2018-05-23T02:12:29.248Z,99.99
2018-05-23T02:13:29.258Z,99.99
2018-05-23T02:14:29.131Z,99.99
2018-05-23T02:15:29.248Z,99.99
2018-05-23T02:16:28.986Z,99.99
2018-05-23T02:17:29.239Z,99.99
2018-05-23T02:18:29.246Z,99.99
2018-05-23T02:19:29.241Z,99.99
2018-05-23T02:20:30.445Z,99.99
2018-05-23T02:21:29.007Z,99.99
2018-05-23T02:22:29.254Z,99.99
2018-05-23T02:23:29.245Z,99.99
2018-05-23T02:24:29.256Z,99.99
2018-05-23T02:25:28.983Z,99.99
2018-05-23T02:26:29.343Z,99.99
2018-05-23T02:27:29.250Z,99.99
2018-05-23T02:28:29.248Z,99.99
2018-05-23T02:29:29.295Z,99.99
2018-05-23T02:30:29.246Z,99.99
2018-05-23T02:31:29.248Z,99.99
2018-05-23T02:32:29.241Z,99.99
2018-05-23T02:33:28.991Z,99.99
2018-05-23T02:34:28.989Z,99.99
2018-05-23T02:35:29.245Z,99.99
2018-05-23T02:36:28.987Z,99.99
2018-05-23T02:37:29.263Z,99.99
2018-05-23T02:38:28.986Z,99.99
2018-05-23T02:39:29.245Z,99.99
2018-05-23T02:40:29.249Z,99.99
2018-05-23T02:41:28.986Z,99.99
2018-05-23T02:42:29.246Z,99.99
2018-05-23T02:43:28.984Z,99.99
2018-05-23T02:44:30.199Z,99.99
2018-05-23T02:45:28.987Z,99.99
2018-05-23T02:46:29.242Z,99.99
2018-05-23T02:47:28.984Z,99.99
2018-05-23T02:48:29.257Z,99.99
2018-05-23T02:49:29.243Z,99.99
2018-05-23T02:50:29.249Z,99.99
2018-05-23T02:51:28.988Z,99.99
2018-05-23T02:52:29.258Z,99.99
2018-05-23T02:53:28.993Z,99.99
2018-05-23T02:54:29.260Z,99.99
2018-05-23T02:55:29.241Z,99.99
2018-05-23T02:56:28.980Z,99.99
2018-05-23T02:57:29.253Z,99.99
2018-05-23T02:58:28.990Z,99.99
2018-05-23T02:59:28.984Z,99.99
2018-05-23T03:00:28.982Z,99.99
2018-05-23T03:01:29.249Z,99.99
2018-05-23T03:02:29.239Z,99.99
2018-05-23T03:03:28.978Z,99.99
2018-05-23T03:04:29.291Z,99.99
2018-05-23T03:05:28.978Z,99.99
2018-05-23T03:06:29.249Z,99.99
2018-05-23T03:07:28.976Z,99.99
2018-05-23T03:08:28.980Z,99.99
2018-05-23T03:09:28.978Z,99.99
2018-05-23T03:10:28.984Z,99.99
2018-05-23T03:11:28.986Z,99.99
2018-05-23T03:12:28.981Z,99.99
2018-05-23T03:13:28.978Z,99.99
2018-05-23T03:14:29.235Z,99.99
2018-05-23T03:15:29.245Z,99.99
2018-05-23T03:16:29.253Z,99.99
2018-05-23T03:17:29.241Z,99.99
2018-05-23T03:18:28.981Z,99.99
2018-05-23T03:19:29.013Z,99.99
2018-05-23T03:20:29.235Z,99.99
2018-05-23T03:21:29.241Z,99.99
2018-05-23T03:22:28.980Z,99.99
2018-05-23T03:23:29.238Z,99.99
2018-05-23T03:24:29.256Z,99.99
2018-05-23T03:25:29.244Z,99.99
2018-05-23T03:26:29.246Z,99.99
2018-05-23T03:27:29.241Z,99.99
2018-05-23T03:28:29.236Z,99.99
2018-05-23T03:29:28.987Z,99.99
2018-05-23T03:30:29.251Z,99.99
2018-05-23T03:31:28.983Z,99.99
2018-05-23T03:32:28.994Z,99.99
2018-05-23T03:33:29.326Z,99.99
2018-05-23T03:34:29.239Z,99.99
2018-05-23T03:35:29.237Z,99.99
2018-05-23T03:36:28.987Z,99.99
2018-05-23T03:37:28.988Z,99.99
2018-05-23T03:38:29.241Z,99.99
2018-05-23T03:39:28.991Z,99.99
2018-05-23T03:40:28.990Z,99.99
2018-05-23T03:41:29.259Z,99.99
2018-05-23T03:42:29.250Z,99.99
2018-05-23T03:43:29.241Z,99.99
2018-05-23T03:44:29.236Z,99.99
2018-05-23T03:45:29.249Z,99.99
2018-05-23T03:46:28.994Z,99.99
2018-05-23T03:47:29.252Z,99.99
2018-05-23T03:48:29.236Z,99.99
2018-05-23T03:49:29.256Z,99.99
2018-05-23T03:50:28.988Z,99.99
2018-05-23T03:51:29.246Z,99.99
2018-05-23T03:52:28.992Z,99.99
2018-05-23T03:53:28.981Z,99.99
2018-05-23T03:54:28.976Z,99.99
2018-05-23T03:55:29.252Z,99.99
2018-05-23T03:56:29.237Z,99.99
2018-05-23T03:57:29.247Z,99.99
2018-05-23T03:58:29.243Z,99.99
2018-05-23T03:59:28.981Z,99.99
2018-05-23T04:00:29.275Z,99.99
2018-05-23T04:01:28.976Z,99.99
2018-05-23T04:02:28.992Z,99.99
2018-05-23T04:03:29.241Z,99.99
2018-05-23T04:04:28.985Z,99.99
2018-05-23T04:05:29.004Z,99.99
2018-05-23T04:06:28.976Z,99.99
2018-05-23T04:07:29.253Z,99.99
2018-05-23T04:08:29.253Z,99.99
2018-05-23T04:09:29.239Z,99.99
2018-05-23T04:10:29.255Z,99.99
2018-05-23T04:11:29.255Z,99.99
2018-05-23T04:12:28.975Z,99.99
2018-05-23T04:13:28.977Z,99.99
2018-05-23T04:14:29.234Z,99.99
2018-05-23T04:15:29.312Z,99.99
2018-05-23T04:16:28.985Z,99.99
2018-05-23T04:17:29.233Z,99.99
2018-05-23T04:18:29.240Z,99.99
2018-05-23T04:19:28.973Z,99.99
2018-05-23T04:20:29.234Z,99.99
2018-05-23T04:21:29.233Z,99.99
2018-05-23T04:22:29.232Z,99.99
2018-05-23T04:23:29.230Z,99.99
2018-05-23T04:24:29.317Z,99.99
2018-05-23T04:25:28.971Z,99.99
2018-05-23T04:26:28.976Z,99.99
2018-05-23T04:27:28.978Z,99.99
2018-05-23T04:28:29.238Z,99.99
2018-05-23T04:29:28.987Z,99.99
2018-05-23T04:30:29.230Z,99.99
2018-05-23T04:31:29.240Z,99.99
2018-05-23T04:32:29.243Z,99.99
2018-05-23T04:33:28.975Z,99.99
2018-05-23T04:34:28.966Z,99.99
2018-05-23T04:35:29.239Z,99.99
2018-05-23T04:36:28.972Z,99.99
2018-05-23T04:37:29.245Z,99.99
2018-05-23T04:38:29.231Z,99.99
2018-05-23T04:39:29.411Z,99.99
2018-05-23T04:40:29.226Z,99.99
2018-05-23T04:41:29.166Z,99.99
2018-05-23T04:42:29.242Z,99.99
2018-05-23T04:43:29.222Z,99.99
2018-05-23T04:44:29.240Z,99.99
2018-05-23T04:45:29.222Z,99.99
2018-05-23T04:46:29.233Z,99.99
2018-05-23T04:47:28.965Z,99.99
2018-05-23T04:48:29.225Z,99.99
2018-05-23T04:49:29.232Z,99.99
2018-05-23T04:50:29.224Z,99.99
2018-05-23T04:51:28.955Z,99.99
2018-05-23T04:52:29.232Z,99.99
2018-05-23T04:53:29.229Z,99.99
2018-05-23T04:54:29.232Z,99.99
2018-05-23T04:55:28.968Z,99.99
2018-05-23T04:56:29.238Z,99.99
2018-05-23T04:57:28.955Z,99.99
2018-05-23T04:58:29.224Z,99.99
2018-05-23T04:59:28.958Z,99.99
2018-05-23T05:00:29.229Z,99.99
2018-05-23T05:01:29.284Z,99.99
2018-05-23T05:02:29.032Z,99.99
2018-05-23T05:03:29.218Z,99.99
2018-05-23T05:04:28.972Z,99.99
2018-05-23T05:05:28.960Z,99.99
2018-05-23T05:06:29.241Z,99.99
2018-05-23T05:07:29.217Z,99.99
2018-05-23T05:08:29.212Z,99.99
2018-05-23T05:09:29.214Z,99.99
2018-05-23T05:10:29.211Z,99.99
2018-05-23T05:11:28.951Z,99.99
2018-05-23T05:12:28.960Z,99.99
2018-05-23T05:13:29.214Z,99.99
2018-05-23T05:14:29.209Z,99.99
2018-05-23T05:15:32.957Z,99.99
2018-05-23T05:16:29.212Z,99.99
2018-05-23T05:17:29.209Z,99.99
2018-05-23T05:18:28.948Z,99.99
2018-05-23T05:19:28.955Z,99.99
2018-05-23T05:20:29.213Z,99.99
2018-05-23T05:21:29.210Z,99.99
2018-05-23T05:22:28.967Z,99.99
2018-05-23T05:23:29.206Z,99.99
2018-05-23T05:24:29.224Z,99.99
2018-05-23T05:25:29.213Z,99.99
2018-05-23T05:26:29.209Z,99.99
2018-05-23T05:27:29.208Z,99.99
2018-05-23T05:28:29.208Z,99.99
2018-05-23T05:29:29.215Z,99.99
2018-05-23T05:30:29.214Z,99.99
2018-05-23T05:31:29.214Z,99.99
2018-05-23T05:32:29.040Z,99.99
2018-05-23T05:33:29.224Z,99.99
2018-05-23T05:34:29.226Z,99.99
2018-05-23T05:35:29.278Z,99.99
2018-05-23T05:36:29.290Z,99.99
2018-05-23T05:37:29.215Z,99.99
2018-05-23T05:38:28.957Z,99.99
2018-05-23T05:39:29.215Z,99.99
2018-05-23T05:40:29.233Z,99.99
2018-05-23T05:41:29.230Z,99.99
2018-05-23T05:42:29.235Z,99.99
2018-05-23T05:43:29.226Z,99.99
2018-05-23T05:44:29.226Z,99.99
2018-05-23T05:45:29.229Z,99.99
2018-05-23T05:46:29.221Z,99.99
2018-05-23T05:47:29.227Z,99.99
2018-05-23T05:48:28.966Z,99.99
2018-05-23T05:49:28.961Z,99.99
2018-05-23T05:50:29.227Z,99.99
2018-05-23T05:51:28.958Z,99.99
2018-05-23T05:52:29.221Z,99.99
2018-05-23T05:53:29.230Z,99.99
2018-05-23T05:54:29.236Z,99.99
2018-05-23T05:55:28.964Z,99.99
2018-05-23T05:56:29.258Z,99.99
2018-05-23T05:57:28.967Z,99.99
2018-05-23T05:58:29.226Z,99.99
2018-05-23T05:59:29.240Z,99.99
2018-05-23T06:00:28.967Z,99.99
2018-05-23T06:01:29.234Z,99.99
2018-05-23T06:02:29.234Z,99.99
2018-05-23T06:03:29.231Z,99.99
2018-05-23T06:04:29.231Z,99.99
2018-05-23T06:05:29.236Z,99.99
2018-05-23T06:06:29.244Z,99.99
2018-05-23T06:07:29.233Z,99.99
2018-05-23T06:08:29.237Z,99.99
2018-05-23T06:09:29.399Z,99.99
2018-05-23T06:10:29.247Z,99.99
2018-05-23T06:11:28.988Z,99.99
2018-05-23T06:12:28.979Z,99.99
2018-05-23T06:13:29.276Z,99.99
2018-05-23T06:23:08.235Z,99.99
2018-05-23T06:24:08.239Z,99.99
2018-05-23T06:25:07.950Z,99.99
2018-05-23T06:26:08.303Z,99.99
2018-05-23T06:27:08.217Z,99.99
2018-05-23T06:28:08.209Z,99.99
2018-05-23T06:29:07.967Z,99.99
2018-05-23T06:30:08.003Z,99.99
2018-05-23T06:31:08.217Z,99.99
2018-05-23T06:32:08.213Z,99.99
2018-05-23T06:33:08.221Z,99.99
2018-05-23T06:34:08.220Z,99.99
2018-05-23T06:35:08.266Z,99.99
2018-05-23T06:36:08.287Z,99.99
2018-05-23T06:37:08.214Z,99.99
2018-05-23T06:38:08.264Z,99.99
2018-05-23T06:39:08.220Z,99.99
2018-05-23T06:40:08.005Z,99.99
2018-05-23T06:41:08.225Z,98.68
2018-05-23T06:42:07.956Z,98.77
2018-05-23T06:43:08.221Z,98.68
2018-05-23T06:44:08.231Z,98.39
2018-05-23T06:45:08.022Z,98.58
2018-05-23T06:46:08.258Z,99.15
2018-05-23T06:47:08.227Z,98.96
2018-05-23T06:48:08.225Z,99.54
2018-05-23T06:49:07.973Z,99.99
2018-05-23T06:50:08.475Z,99.99
2018-05-23T06:51:08.240Z,99.99
2018-05-23T06:52:08.239Z,99.99
2018-05-23T06:53:08.234Z,99.99
2018-05-23T06:54:07.978Z,99.99
2018-05-23T06:55:08.656Z,99.99
2018-05-23T06:56:08.250Z,99.99
2018-05-23T06:57:07.986Z,99.99
2018-05-23T06:58:07.998Z,99.99
2018-05-23T06:59:08.249Z,99.99
2018-05-23T07:00:08.072Z,99.99
2018-05-23T07:01:07.987Z,99.99
2018-05-23T07:02:07.996Z,99.99
2018-05-23T07:03:08.349Z,99.99
2018-05-23T07:04:07.994Z,99.99
2018-05-23T07:05:08.101Z,99.99
2018-05-23T07:06:08.258Z,99.99
2018-05-23T07:07:08.286Z,99.25
2018-05-23T07:08:08.258Z,99.92
2018-05-23T07:09:08.003Z,99.99
2018-05-23T07:10:08.392Z,99.99
2018-05-23T07:11:08.505Z,98.96
2018-05-23T07:12:08.278Z,98
2018-05-23T07:13:08.016Z,98.29
2018-05-23T07:14:08.282Z,98.29
2018-05-23T07:15:08.074Z,97.71
2018-05-23T07:16:08.277Z,97.52
2018-05-23T07:17:08.021Z,97.62
2018-05-23T07:18:08.398Z,97.81
2018-05-23T07:19:08.279Z,97.81
2018-05-23T07:20:08.363Z,97.42
2018-05-23T07:21:08.074Z,97.71
2018-05-23T07:22:08.284Z,97.14
2018-05-23T07:23:08.036Z,94.16
2018-05-23T07:24:08.396Z,93.19
2018-05-23T07:25:08.097Z,93.19
2018-05-23T07:26:08.297Z,93.24
2018-05-23T07:27:08.295Z,92.29
2018-05-23T07:28:08.310Z,88.63
2018-05-23T07:29:08.309Z,89.01
2018-05-23T07:30:08.170Z,88.06
2018-05-23T07:31:08.311Z,88.1
2018-05-23T07:32:08.307Z,87.33
2018-05-23T07:33:08.314Z,85.78
2018-05-23T07:34:08.313Z,85.93
2018-05-23T07:35:08.322Z,85.06
2018-05-23T07:36:08.315Z,84.19
2018-05-23T07:37:08.060Z,84.58
2018-05-23T07:38:08.117Z,82.89
2018-05-23T07:39:08.354Z,82.6
2018-05-23T07:40:08.164Z,81.83
2018-05-23T07:41:08.381Z,81.68
2018-05-23T07:42:08.346Z,81.29
2018-05-23T07:43:08.334Z,78.98
2018-05-23T07:44:08.340Z,79.69
2018-05-23T07:45:08.434Z,78.69
2018-05-23T07:46:08.101Z,78.92
2018-05-23T07:47:08.106Z,77.83
2018-05-23T07:48:08.107Z,76.86
2018-05-23T07:49:08.105Z,77.15
2018-05-23T07:50:08.517Z,77.73
2018-05-23T07:51:08.112Z,78.4
2018-05-23T07:52:08.376Z,78.59
2018-05-23T07:53:09.175Z,78.59
2018-05-23T07:54:08.370Z,78.5
2018-05-23T07:55:08.376Z,77.53
2018-05-23T07:56:08.424Z,77.96
2018-05-23T07:57:08.387Z,76.61
2018-05-23T07:58:08.927Z,76.42
2018-05-23T07:59:08.397Z,75.36
2018-05-23T08:00:08.220Z,74.72
2018-05-23T08:01:08.418Z,74.43
2018-05-23T08:02:08.140Z,74.91
2018-05-23T08:03:08.408Z,73.75
2018-05-23T08:04:08.178Z,72.63
2018-05-23T08:05:08.575Z,72.06
2018-05-23T08:06:08.419Z,71.86
2018-05-23T08:07:08.427Z,71.96
2018-05-23T08:08:08.176Z,72.06
2018-05-23T08:09:08.486Z,72.25
2018-05-23T08:10:08.719Z,72.34
2018-05-23T08:11:08.450Z,71.22
2018-05-23T08:12:08.190Z,70.84
2018-05-23T08:13:08.197Z,70.45
2018-05-23T08:14:08.455Z,71
2018-05-23T08:15:08.412Z,71.03
2018-05-23T08:16:08.473Z,70.94
2018-05-23T08:17:08.473Z,70.42
2018-05-23T08:18:08.479Z,70.61
2018-05-23T08:19:08.472Z,71.48
2018-05-23T08:20:08.294Z,72.41
2018-05-23T08:21:08.485Z,72.31
2018-05-23T08:22:08.480Z,72.31
2018-05-23T08:23:08.485Z,72.25
2018-05-23T08:24:08.243Z,71.77
2018-05-23T08:25:08.375Z,71.86
2018-05-23T08:26:08.310Z,72.06
2018-05-23T08:27:08.254Z,70.22
2018-05-23T08:28:08.262Z,70.32
2018-05-23T08:29:08.511Z,69.84
2018-05-23T08:30:08.620Z,70.51
2018-05-23T08:31:08.532Z,69.55
2018-05-23T08:32:08.268Z,69.64
2018-05-23T08:33:08.269Z,71
2018-05-23T08:34:08.277Z,69.97
2018-05-23T08:35:08.325Z,68.91
2018-05-23T08:36:08.614Z,68.71
2018-05-23T08:37:08.548Z,69.84
2018-05-23T08:38:08.299Z,69.74
2018-05-23T08:39:08.555Z,70.32
2018-05-23T08:40:08.517Z,70.7
2018-05-23T08:41:08.391Z,70.7
2018-05-23T08:42:08.584Z,70.8
2018-05-23T08:43:08.585Z,72.25
2018-05-23T08:44:08.319Z,72.54
2018-05-23T08:45:08.682Z,71.38
2018-05-23T08:46:08.339Z,71.09
2018-05-23T08:47:08.592Z,69.39
2018-05-23T08:48:08.591Z,68.91
2018-05-23T08:49:08.337Z,68.75
2018-05-23T08:50:08.759Z,67.69
2018-05-23T08:51:08.609Z,69.62
2018-05-23T08:52:08.358Z,69.52
2018-05-23T08:53:08.619Z,69.42
2018-05-23T08:54:08.364Z,69.52
2018-05-23T08:55:08.482Z,68.94
2018-05-23T08:56:08.686Z,68.91
2018-05-23T08:57:08.630Z,69
2018-05-23T08:58:08.374Z,70.16
2018-05-23T08:59:08.383Z,69.97
2018-05-23T09:00:08.475Z,69.58
2018-05-23T09:01:08.448Z,68.62
2018-05-23T09:02:08.659Z,67.55
2018-05-23T09:03:08.402Z,68.04
2018-05-23T09:04:08.405Z,68.87
2018-05-23T09:05:08.878Z,69.45
2018-05-23T09:06:08.714Z,69.74
2018-05-23T09:07:08.679Z,68.59
2018-05-23T09:08:08.678Z,68.59
2018-05-23T09:09:08.423Z,68.97
2018-05-23T09:10:08.524Z,68.01
2018-05-23T09:11:08.434Z,67.52
2018-05-23T09:12:08.739Z,68.1
2018-05-23T09:13:08.446Z,68.84
2018-05-23T09:14:08.710Z,69.03
2018-05-23T09:15:08.594Z,69.71
2018-05-23T09:16:08.723Z,69.9
2018-05-23T09:17:08.457Z,69.9
2018-05-23T09:18:08.718Z,70.76
2018-05-23T09:19:08.725Z,72.02
2018-05-23T09:20:08.895Z,72.18
2018-05-23T09:21:08.802Z,71.64
2018-05-23T09:22:08.478Z,71.34
2018-05-23T09:23:08.481Z,71.83
2018-05-23T09:24:08.804Z,73.08
2018-05-23T09:25:08.648Z,74.18
2018-05-23T09:26:08.493Z,73.79
2018-05-23T09:27:08.751Z,72.15
2018-05-23T09:28:08.772Z,70.7
2018-05-23T09:29:08.763Z,71.48
2018-05-23T09:30:08.534Z,71.38
2018-05-23T09:31:08.857Z,70.03
2018-05-23T09:32:08.901Z,69.26
2018-05-23T09:33:08.776Z,69.55
2018-05-23T09:34:08.779Z,69.97
2018-05-23T09:35:08.789Z,70.26
2018-05-23T09:36:08.793Z,69.81
2018-05-23T09:37:08.803Z,68.75
2018-05-23T09:38:08.535Z,67.59
2018-05-23T09:39:08.648Z,67.11
2018-05-23T09:40:08.687Z,67.72
2018-05-23T09:41:08.553Z,66.08
2018-05-23T09:42:08.553Z,66.36
2018-05-23T09:43:08.564Z,65.88
2018-05-23T09:44:08.825Z,65.14
2018-05-23T09:45:09.037Z,67.08
2018-05-23T09:46:08.840Z,65.34
2018-05-23T09:47:08.848Z,65.43
2018-05-23T09:48:08.585Z,65.2
2018-05-23T09:49:08.599Z,67.04
2018-05-23T09:50:08.766Z,66.46
2018-05-23T09:51:08.854Z,66.46
2018-05-23T09:52:08.860Z,65.5
2018-05-23T09:53:08.606Z,64.76
2018-05-23T09:54:08.900Z,63.69
2018-05-23T09:55:08.773Z,63.79
2018-05-23T09:56:08.882Z,63.89
2018-05-23T09:57:08.623Z,63.14
2018-05-23T09:58:08.898Z,63.73
2018-05-23T09:59:08.897Z,63.24
2018-05-23T10:00:08.959Z,62.66
2018-05-23T10:01:08.918Z,62.76
2018-05-23T10:02:08.913Z,61.89
2018-05-23T10:03:08.909Z,62.59
2018-05-23T10:04:08.929Z,62.18
2018-05-23T10:05:08.702Z,61.4
2018-05-23T10:06:08.925Z,61.89
2018-05-23T10:07:08.681Z,63.79
2018-05-23T10:08:08.677Z,64.37
2018-05-23T10:09:09.010Z,63.4
2018-05-23T10:10:09.092Z,63.11
2018-05-23T10:11:09.080Z,61.79
2018-05-23T10:12:08.960Z,61.5
2018-05-23T10:13:08.704Z,61.15
2018-05-23T10:14:09.014Z,61.33
2018-05-23T10:15:08.795Z,60.66
2018-05-23T10:16:09.017Z,60.66
2018-05-23T10:17:08.729Z,61.72
2018-05-23T10:18:08.997Z,61.82
2018-05-23T10:19:09.006Z,62.59
2018-05-23T10:20:09.136Z,62.21
2018-05-23T10:21:08.749Z,62.18
2018-05-23T10:22:08.752Z,62.69
2018-05-23T10:23:09.018Z,63.56
2018-05-23T10:53:48.286Z,59.53
2018-05-23T10:54:45.349Z,58.56
2018-05-23T10:55:45.336Z,59.05
2018-05-23T10:56:45.351Z,58.85
2018-05-23T10:57:45.080Z,59.69
2018-05-23T10:58:45.343Z,60.08
2018-05-23T10:59:45.352Z,60.95
2018-05-23T11:00:45.353Z,61.69
2018-05-23T11:01:45.097Z,61.5
2018-05-23T11:02:45.355Z,62.08
2018-05-23T11:03:45.366Z,61.69
2018-05-23T11:04:45.104Z,61.6
2018-05-23T11:05:45.209Z,60.82
2018-05-23T11:06:45.371Z,61.02
2018-05-23T11:07:45.115Z,62.05
2018-05-23T11:08:45.141Z,62.82
2018-05-23T11:09:45.387Z,62.27
2018-05-23T11:10:45.413Z,61.6
2018-05-23T11:11:45.399Z,61.79
2018-05-23T11:12:45.416Z,61.6
2018-05-23T11:13:45.404Z,61.3
2018-05-23T11:14:45.522Z,61.6
2018-05-23T11:15:45.410Z,61.69
2018-05-23T11:16:45.418Z,61.69
2018-05-23T11:17:45.165Z,61.6
2018-05-23T11:18:45.167Z,62.27
2018-05-23T11:19:45.446Z,62.18
2018-05-23T11:20:45.435Z,62.47
2018-05-23T11:21:45.184Z,62.56
2018-05-23T11:22:45.447Z,61.5
2018-05-23T11:23:45.206Z,61.15
2018-05-23T11:24:45.522Z,61.02
2018-05-23T11:25:45.216Z,61.69
2018-05-23T11:26:45.211Z,61.69
2018-05-23T11:27:45.472Z,62.05
2018-05-23T11:28:45.482Z,63.53
2018-05-23T11:29:45.670Z,62.85
2018-05-23T11:30:45.492Z,61.79
2018-05-23T11:31:45.493Z,61.6
2018-05-23T11:32:45.233Z,62.47
2018-05-23T11:33:45.242Z,62.76
2018-05-23T11:34:45.504Z,62.95
2018-05-23T11:35:45.507Z,61.69
2018-05-23T11:36:45.518Z,61.79
2018-05-23T11:37:45.514Z,61.69
2018-05-23T11:38:45.523Z,61.5
2018-05-23T11:39:45.276Z,62.18
2018-05-23T11:40:45.543Z,63.73
2018-05-23T11:41:45.548Z,63.11
2018-05-23T11:42:45.544Z,65.63
2018-05-23T11:43:45.292Z,65.43
2018-05-23T11:44:45.558Z,65.05
2018-05-23T11:45:45.563Z,65.05
2018-05-23T11:46:45.307Z,63.89
2018-05-23T11:47:45.314Z,64.01
2018-05-23T11:48:45.576Z,62.47
2018-05-23T11:49:45.361Z,61.3
2018-05-23T11:50:45.326Z,61.3
2018-05-23T11:51:45.602Z,61.95
2018-05-23T11:52:45.388Z,62.92
2018-05-23T11:53:45.352Z,63.76
2018-05-23T11:54:45.448Z,64.34
2018-05-23T11:55:45.609Z,64.43
2018-05-23T11:56:45.614Z,65.01
2018-05-23T11:57:45.355Z,64.43
2018-05-23T11:58:45.357Z,63.76
2018-05-23T11:59:45.368Z,63.4
2018-05-23T12:00:45.382Z,62.44
2018-05-23T12:01:45.395Z,61.5
2018-05-23T12:02:45.665Z,61.6
2018-05-23T12:03:45.651Z,61.79
2018-05-23T12:04:45.652Z,61.79
2018-05-23T12:05:45.408Z,61.92
2018-05-23T12:06:45.659Z,62.69
2018-05-23T12:07:45.682Z,62.5
2018-05-23T12:08:45.414Z,62.4
2018-05-23T12:09:45.413Z,62.11
2018-05-23T12:10:45.762Z,61.24
2018-05-23T12:11:45.420Z,60.85
2018-05-23T12:12:45.825Z,60.3
2018-05-23T12:13:45.449Z,61.08
2018-05-23T12:14:45.437Z,60.88
2018-05-23T12:15:45.452Z,60.69
2018-05-23T12:16:45.701Z,59.63
2018-05-23T12:17:45.451Z,59.72
2018-05-23T12:18:45.723Z,60.21
2018-05-23T12:19:45.833Z,60.08
2018-05-23T12:20:45.731Z,61.53
2018-05-23T12:21:45.738Z,61.69
2018-05-23T12:22:45.748Z,61.98
2018-05-23T12:23:45.738Z,61.79
2018-05-23T12:24:45.808Z,63.05
2018-05-23T12:25:45.759Z,63.53
2018-05-23T12:26:45.762Z,62.37
2018-05-23T12:27:45.758Z,62.27
2018-05-23T12:28:45.504Z,62.37
2018-05-23T12:29:45.507Z,62.73
2018-05-23T12:30:45.511Z,62.15
2018-05-23T12:31:45.778Z,62.15
2018-05-23T12:32:45.840Z,62.73
2018-05-23T12:33:45.536Z,63.37
2018-05-23T12:34:45.794Z,62.44
2018-05-23T12:35:45.787Z,62.53
2018-05-23T12:36:45.538Z,62.53
2018-05-23T12:37:45.819Z,62.53
2018-05-23T12:38:45.805Z,62.63
2018-05-23T12:39:45.554Z,61.57
2018-05-23T12:40:45.814Z,61.37
2018-05-23T12:41:45.825Z,61.76
2018-05-23T12:42:45.820Z,61.57
2018-05-23T12:43:45.572Z,61.57
2018-05-23T12:44:45.571Z,62.05
2018-05-23T12:45:45.836Z,61.6
2018-05-23T12:46:45.834Z,61.86
2018-05-23T12:47:45.590Z,60.99
2018-05-23T12:48:45.861Z,61.21
2018-05-23T12:49:45.605Z,61.11
2018-05-23T12:50:45.862Z,61.69
2018-05-23T12:51:45.638Z,60.63
2018-05-23T12:52:45.865Z,60.66
2018-05-23T12:53:45.881Z,60.08
2018-05-23T12:54:49.130Z,58.95
2018-05-23T12:55:45.634Z,57.79
2018-05-23T12:56:45.633Z,57.79
2018-05-23T12:57:45.901Z,56.85
2018-05-23T12:58:45.896Z,56.26
2018-05-23T12:59:45.642Z,55.98
2018-05-23T13:00:45.933Z,55.42
2018-05-23T13:01:45.652Z,55.81
2018-05-23T13:02:45.925Z,55.78
2018-05-23T13:03:45.919Z,55
2018-05-23T13:04:45.667Z,55
2018-05-23T13:05:45.929Z,55.49
2018-05-23T13:06:45.974Z,55.76
2018-05-23T13:07:45.945Z,56.43
2018-05-23T13:08:45.699Z,56.79
2018-05-23T13:09:45.699Z,57.56
2018-05-23T13:10:45.958Z,58.34
2018-05-23T13:11:45.980Z,57.28
2018-05-23T13:12:45.741Z,57.46
2018-05-23T13:13:45.971Z,57.37
2018-05-23T13:14:45.975Z,56.5
2018-05-23T13:15:45.981Z,56.52
2018-05-23T13:16:45.984Z,56.43
2018-05-23T13:17:45.728Z,56.82
2018-05-23T13:18:45.995Z,56.52
2018-05-23T13:19:45.999Z,55.76
2018-05-23T13:20:46.000Z,54.88
2018-05-23T13:21:45.749Z,55.27
2018-05-23T13:22:45.764Z,55.36
2018-05-23T13:23:46.017Z,55.36
2018-05-23T13:24:46.020Z,55.43
2018-05-23T13:25:46.037Z,58.53
2018-05-23T13:26:45.774Z,57.66
2018-05-23T13:27:45.779Z,58.63
2018-05-23T13:28:45.783Z,57.28
2018-05-23T13:29:46.059Z,56.3
2018-05-23T13:30:45.788Z,56.3
2018-05-23T13:31:46.060Z,56.4
2018-05-23T13:32:46.056Z,56.3